createdAt,value
2019-02-05T00:00:37.635Z,101682.83
2019-02-05T00:03:07.215Z,101681.50
2019-02-05T00:05:35.489Z,101681.98
2019-02-05T00:08:03.829Z,101685.42
2019-02-05T00:10:32.095Z,101690.52
2019-02-05T00:13:00.364Z,101687.94
2019-02-05T00:15:28.901Z,101691.81
2019-02-05T00:17:57.171Z,101687.50
2019-02-05T00:20:25.437Z,101687.48
2019-02-05T00:22:53.737Z,101697.36
2019-02-05T00:25:21.999Z,101689.61
2019-02-05T00:27:50.251Z,101696.48
2019-02-05T00:30:18.693Z,101699.00
2019-02-05T00:32:47.113Z,101689.96
2019-02-05T00:35:15.375Z,101686.96
2019-02-05T00:37:43.622Z,101680.94
2019-02-05T00:40:16.126Z,101687.37
2019-02-05T00:42:44.426Z,101676.20
2019-02-05T00:45:15.189Z,101694.67
2019-02-05T00:47:43.444Z,101673.59
2019-02-05T00:50:13.254Z,101678.31
2019-02-05T00:52:41.510Z,101680.05
2019-02-05T00:55:12.871Z,101672.30
2019-02-05T00:57:41.136Z,101679.61
2019-02-05T01:00:23.916Z,101679.61
2019-02-05T01:02:52.355Z,101686.49
2019-02-05T01:05:20.683Z,101692.94
2019-02-05T01:07:48.930Z,101706.73
2019-02-05T01:10:17.427Z,101702.02
2019-02-05T01:12:45.683Z,101699.00
2019-02-05T01:15:16.832Z,101699.44
2019-02-05T01:17:45.087Z,101696.00
2019-02-05T01:20:16.657Z,101696.42
2019-02-05T01:22:44.997Z,101698.16
2019-02-05T01:25:13.687Z,101696.87
2019-02-05T01:27:41.984Z,101700.80
2019-02-05T01:30:18.839Z,101704.69
2019-02-05T01:32:47.107Z,101704.27
2019-02-05T01:35:15.379Z,101703.44
2019-02-05T01:37:43.649Z,101701.71
2019-02-05T01:40:14.664Z,101700.89
2019-02-05T01:42:43.472Z,101688.38
2019-02-05T01:45:14.644Z,101695.68
2019-02-05T01:47:42.938Z,101690.52
2019-02-05T01:50:14.132Z,101678.05
2019-02-05T01:52:42.485Z,101680.63
2019-02-05T01:55:11.684Z,101687.93
2019-02-05T01:57:40.244Z,101687.92
2019-02-05T02:00:17.411Z,101687.48
2019-02-05T02:02:45.819Z,101687.90
2019-02-05T02:05:14.364Z,101680.59
2019-02-05T02:07:42.615Z,101681.44
2019-02-05T02:10:14.068Z,101677.95
2019-02-05T02:12:42.348Z,101691.71
2019-02-05T02:15:11.284Z,101677.08
2019-02-05T02:17:39.549Z,101674.06
2019-02-05T02:20:11.006Z,101676.22
2019-02-05T02:22:39.264Z,101683.09
2019-02-05T02:25:09.875Z,101678.37
2019-02-05T02:27:38.202Z,101686.52
2019-02-05T02:30:12.311Z,101680.92
2019-02-05T02:32:40.579Z,101674.45
2019-02-05T02:35:08.852Z,101694.67
2019-02-05T02:37:37.125Z,101688.22
2019-02-05T02:40:08.025Z,101693.38
2019-02-05T02:42:36.297Z,101690.38
2019-02-05T02:45:08.007Z,101697.25
2019-02-05T02:47:36.264Z,101704.13
2019-02-05T02:50:06.573Z,101698.09
2019-02-05T02:52:34.819Z,101701.96
2019-02-05T02:55:03.433Z,101707.92
2019-02-05T02:57:31.699Z,101703.18
2019-02-05T02:59:59.957Z,101708.79
2019-02-05T03:02:28.321Z,101707.92
2019-02-05T03:04:56.551Z,101706.66
2019-02-05T03:07:24.811Z,101713.14
2019-02-05T03:09:53.077Z,101714.40
2019-02-05T03:12:21.656Z,101717.48
2019-02-05T03:14:49.882Z,101715.34
2019-02-05T03:17:18.158Z,101719.23
2019-02-05T03:19:46.411Z,101725.69
2019-02-05T03:22:17.319Z,101718.42
2019-02-05T03:24:45.681Z,101709.34
2019-02-05T03:27:17.871Z,101705.97
2019-02-05T03:29:43.916Z,101712.84
2019-02-05T03:32:12.453Z,101712.85
2019-02-05T03:34:40.706Z,101715.88
2019-02-05T03:37:08.973Z,101713.70
2019-02-05T03:39:37.261Z,101714.13
2019-02-05T03:42:05.536Z,101716.28
2019-02-05T03:44:33.802Z,101715.42
2019-02-05T03:47:02.093Z,101715.37
2019-02-05T03:49:30.649Z,101716.28
2019-02-05T03:52:02.017Z,101725.27
2019-02-05T03:54:57.509Z,101718.80
2019-02-05T03:57:40.481Z,101717.52
2019-02-05T04:00:32.648Z,101729.13
2019-02-05T04:03:09.871Z,101724.40
2019-02-05T04:05:50.064Z,101726.11
2019-02-05T04:08:21.514Z,101728.69
2019-02-05T04:11:24.201Z,101735.56
2019-02-05T04:14:15.205Z,101727.81
2019-02-05T04:17:17.881Z,101726.51
2019-02-05T04:19:54.774Z,101728.23
2019-02-05T04:22:34.733Z,101730.81
2019-02-05T04:25:25.387Z,101728.23
2019-02-05T04:27:58.461Z,101733.39
2019-02-05T04:30:41.827Z,101723.92
2019-02-05T04:33:19.217Z,101717.03
2019-02-05T04:36:05.688Z,101726.50
2019-02-05T04:38:45.591Z,101720.85
2019-02-05T04:41:31.648Z,101723.85
2019-02-05T04:44:20.750Z,101720.89
2019-02-05T04:47:03.975Z,101722.61
2019-02-05T04:49:50.305Z,101721.33
2019-02-05T04:52:36.497Z,101730.31
2019-02-05T04:55:13.987Z,101723.91
2019-02-05T04:57:57.083Z,101729.07
2019-02-05T05:00:24.361Z,101729.03
2019-02-05T05:03:12.353Z,101735.91
2019-02-05T05:05:57.849Z,101732.45
2019-02-05T05:08:35.264Z,101737.19
2019-02-05T05:11:03.521Z,101737.62
2019-02-05T05:13:31.954Z,101736.76
2019-02-05T05:16:00.496Z,101736.75
2019-02-05T05:18:28.765Z,101733.30
2019-02-05T05:20:57.142Z,101733.73
2019-02-05T05:23:25.764Z,101736.33
2019-02-05T05:25:54.106Z,101735.88
2019-02-05T05:28:22.362Z,101740.62
2019-02-05T05:30:50.912Z,101741.47
2019-02-05T05:33:19.165Z,101750.50
2019-02-05T05:35:47.423Z,101746.63
2019-02-05T05:38:15.696Z,101745.34
2019-02-05T05:40:44.005Z,101757.39
2019-02-05T05:43:12.267Z,101752.21
2019-02-05T05:45:40.532Z,101746.18
2019-02-05T05:48:09.090Z,101753.72
2019-02-05T05:50:37.368Z,101755.57
2019-02-05T05:53:05.611Z,101762.91
2019-02-05T05:55:33.882Z,101758.60
2019-02-05T05:58:02.193Z,101767.21
2019-02-05T06:00:30.458Z,101767.69
2019-02-05T06:02:58.714Z,101762.05
2019-02-05T06:05:26.969Z,101766.83
2019-02-05T06:07:55.238Z,101764.25
2019-02-05T06:10:23.497Z,101765.49
2019-02-05T06:12:51.781Z,101761.23
2019-02-05T06:15:20.042Z,101769.84
2019-02-05T06:17:48.304Z,101768.93
2019-02-05T06:20:19.391Z,101772.37
2019-02-05T06:22:47.645Z,101779.23
2019-02-05T06:25:15.898Z,101781.41
2019-02-05T06:27:44.162Z,101778.83
2019-02-05T06:30:15.534Z,101778.41
2019-02-05T06:32:43.824Z,101788.30
2019-02-05T06:35:12.333Z,101793.47
2019-02-05T06:37:40.595Z,101797.33
2019-02-05T06:40:12.144Z,101795.61
2019-02-05T06:42:40.406Z,101798.19
2019-02-05T06:45:11.487Z,101794.75
2019-02-05T06:47:39.805Z,101808.52
2019-02-05T06:50:10.515Z,101811.53
2019-02-05T06:52:38.767Z,101813.68
2019-02-05T06:55:09.870Z,101810.67
2019-02-05T06:57:38.134Z,101812.82
2019-02-05T07:00:20.876Z,101808.95
2019-02-05T07:02:49.133Z,101812.41
2019-02-05T07:05:17.457Z,101818.86
2019-02-05T07:07:45.726Z,101817.15
2019-02-05T07:10:17.265Z,101818.00
2019-02-05T07:12:45.537Z,101822.31
2019-02-05T07:15:14.030Z,101814.11
2019-02-05T07:17:49.343Z,101821.87
2019-02-05T07:20:14.959Z,101826.17
2019-02-05T07:22:43.250Z,101832.18
2019-02-05T07:25:19.465Z,101838.20
2019-02-05T07:27:47.732Z,101833.03
2019-02-05T07:30:18.627Z,101839.06
2019-02-05T07:32:46.889Z,101843.36
2019-02-05T07:35:16.102Z,101853.20
2019-02-05T07:37:44.839Z,101858.36
2019-02-05T07:40:18.788Z,101854.48
2019-02-05T07:42:47.106Z,101850.16
2019-02-05T07:45:20.998Z,101848.45
2019-02-05T07:47:49.265Z,101860.52
2019-02-05T07:50:19.772Z,101863.95
2019-02-05T07:52:48.032Z,101865.25
2019-02-05T07:55:16.315Z,101870.83
2019-02-05T07:57:44.827Z,101880.74
2019-02-05T08:00:18.268Z,101883.76
2019-02-05T08:02:46.814Z,101894.95
2019-02-05T08:05:20.400Z,101893.22
2019-02-05T08:07:49.080Z,101901.39
2019-02-05T08:10:19.601Z,101904.41
2019-02-05T08:12:48.296Z,101906.14
2019-02-05T08:15:22.667Z,101908.29
2019-02-05T08:17:50.937Z,101908.73
2019-02-05T08:20:19.184Z,101900.95
2019-02-05T08:22:47.436Z,101897.07
2019-02-05T08:25:16.624Z,101903.92
2019-02-05T08:27:45.048Z,101897.06
2019-02-05T08:30:40.182Z,101909.50
2019-02-05T08:33:08.454Z,101908.65
2019-02-05T08:35:36.706Z,101912.06
2019-02-05T08:38:05.038Z,101910.75
2019-02-05T08:40:33.303Z,101910.34
2019-02-05T08:43:01.849Z,101918.09
2019-02-05T08:45:32.047Z,101924.13
2019-02-05T08:48:00.377Z,101933.16
2019-02-05T08:50:29.976Z,101920.66
2019-02-05T08:52:58.242Z,101930.94
2019-02-05T08:55:26.572Z,101931.80
2019-02-05T08:58:09.019Z,101927.92
2019-02-05T09:00:38.929Z,101933.58
2019-02-05T09:03:09.028Z,101933.52
2019-02-05T09:05:37.364Z,101938.70
2019-02-05T09:08:05.613Z,101948.16
2019-02-05T09:10:36.280Z,101936.97
2019-02-05T09:13:05.068Z,101941.25
2019-02-05T09:15:34.523Z,101943.81
2019-02-05T09:18:02.786Z,101937.72
2019-02-05T09:20:31.132Z,101933.91
2019-02-05T09:22:59.402Z,101933.39
2019-02-05T09:25:27.661Z,101939.39
2019-02-05T09:27:55.906Z,101936.84
2019-02-05T09:30:32.484Z,101943.72
2019-02-05T09:33:03.190Z,101940.72
2019-02-05T09:35:31.512Z,101946.71
2019-02-05T09:37:59.780Z,101950.58
2019-02-05T09:40:30.545Z,101960.49
2019-02-05T09:42:58.790Z,101953.59
2019-02-05T09:45:28.056Z,101952.29
2019-02-05T09:47:56.682Z,101964.38
2019-02-05T09:50:24.939Z,101963.50
2019-02-05T09:52:53.193Z,101969.56
2019-02-05T09:55:21.823Z,101969.04
2019-02-05T09:57:50.076Z,101972.87
2019-02-05T10:00:29.468Z,101972.91
2019-02-05T10:02:57.990Z,101971.17
2019-02-05T10:05:31.361Z,101973.31
2019-02-05T10:07:59.602Z,101984.50
2019-02-05T10:10:27.952Z,101984.45
2019-02-05T10:12:56.205Z,101991.83
2019-02-05T10:15:27.258Z,101995.27
2019-02-05T10:17:55.514Z,101987.55
2019-02-05T10:20:24.211Z,101992.71
2019-02-05T10:22:52.699Z,101992.71
2019-02-05T10:25:21.028Z,101999.09
2019-02-05T10:27:49.301Z,101990.09
2019-02-05T10:30:31.073Z,101986.12
2019-02-05T10:32:59.674Z,101995.17
2019-02-05T10:35:27.942Z,101993.00
2019-02-05T10:37:56.259Z,101997.34
2019-02-05T10:40:24.880Z,101999.91
2019-02-05T10:42:53.216Z,102001.20
2019-02-05T10:45:25.898Z,102001.62
2019-02-05T10:47:54.530Z,101999.80
2019-02-05T10:50:23.503Z,101995.49
2019-02-05T10:52:51.826Z,101998.56
2019-02-05T10:55:21.636Z,101994.20
2019-02-05T10:57:51.817Z,101995.01
2019-02-05T11:00:31.165Z,101991.59
2019-02-05T11:03:01.673Z,102002.74
2019-02-05T11:05:30.629Z,101989.73
2019-02-05T11:07:59.257Z,101988.83
2019-02-05T11:10:27.517Z,101984.92
2019-02-05T11:12:55.783Z,101980.09
2019-02-05T11:15:29.540Z,101983.50
2019-02-05T11:17:57.887Z,101978.37
2019-02-05T11:20:27.768Z,101978.70
2019-02-05T11:22:56.188Z,101984.27
2019-02-05T11:25:24.446Z,101979.53
2019-02-05T11:27:52.700Z,101974.75
2019-02-05T11:30:26.450Z,101975.10
2019-02-05T11:32:54.696Z,101968.56
2019-02-05T11:35:22.970Z,101968.11
2019-02-05T11:37:51.573Z,101970.28
2019-02-05T11:40:22.992Z,101975.02
2019-02-05T11:42:51.252Z,101975.69
2019-02-05T11:45:20.058Z,101974.70
2019-02-05T11:47:49.169Z,101972.60
2019-02-05T11:50:18.256Z,101968.58
2019-02-05T11:52:47.593Z,101977.53
2019-02-05T11:55:27.880Z,101979.54
2019-02-05T11:57:56.138Z,101980.69
2019-02-05T12:00:40.809Z,101978.68
2019-02-05T12:03:10.107Z,101978.64
2019-02-05T12:05:38.633Z,101978.63
2019-02-05T12:08:07.021Z,101978.52
2019-02-05T12:10:35.274Z,101976.29
2019-02-05T12:13:03.585Z,101981.12
2019-02-05T12:15:31.847Z,101983.86
2019-02-05T12:18:00.108Z,101988.72
2019-02-05T12:20:28.502Z,101988.63
2019-02-05T12:22:56.828Z,101986.44
2019-02-05T12:25:25.150Z,101989.75
2019-02-05T12:27:53.396Z,101981.44
2019-02-05T12:30:29.889Z,101990.05
2019-02-05T12:32:58.209Z,101986.23
2019-02-05T12:35:26.460Z,101982.46
2019-02-05T12:37:54.719Z,101985.45
2019-02-05T12:40:23.318Z,101985.98
2019-02-05T12:42:51.551Z,101987.42
2019-02-05T12:45:25.793Z,101988.97
2019-02-05T12:47:54.115Z,101987.20
2019-02-05T12:50:24.503Z,101994.43
2019-02-05T12:52:52.780Z,101986.34
2019-02-05T12:55:21.401Z,101993.70
2019-02-05T12:57:49.813Z,101994.80
2019-02-05T13:00:27.025Z,101987.72
2019-02-05T13:02:55.281Z,101987.00
2019-02-05T13:05:23.680Z,101993.86
2019-02-05T13:07:51.930Z,101997.86
2019-02-05T13:10:25.934Z,101998.69
2019-02-05T13:12:54.198Z,102000.88
2019-02-05T13:15:22.484Z,102007.41
2019-02-05T13:17:50.719Z,102006.50
2019-02-05T13:20:25.048Z,102011.69
2019-02-05T13:22:53.742Z,102007.45
2019-02-05T13:25:26.825Z,102011.31
2019-02-05T13:27:55.091Z,102013.89
2019-02-05T13:30:33.898Z,102010.72
2019-02-05T13:33:02.220Z,102009.92
2019-02-05T13:35:30.809Z,102011.31
2019-02-05T13:37:59.144Z,102010.91
2019-02-05T13:40:29.194Z,102017.48
2019-02-05T13:42:57.895Z,102010.14
2019-02-05T13:45:33.582Z,102010.91
2019-02-05T13:48:02.010Z,102014.81
2019-02-05T13:50:33.347Z,102013.47
2019-02-05T13:53:01.878Z,102013.92
2019-02-05T13:55:35.369Z,102018.72
2019-02-05T13:58:03.793Z,102018.72
2019-02-05T14:00:40.697Z,102022.17
2019-02-05T14:03:10.057Z,102020.98
2019-02-05T14:05:38.551Z,102025.19
2019-02-05T14:08:06.948Z,102026.84
2019-02-05T14:10:40.308Z,102031.13
2019-02-05T14:13:08.541Z,102030.27
2019-02-05T14:15:39.040Z,102036.33
2019-02-05T14:18:07.903Z,102035.79
2019-02-05T14:20:36.222Z,102040.05
2019-02-05T14:23:04.542Z,102030.57
2019-02-05T14:25:32.872Z,102033.50
2019-02-05T14:28:01.147Z,102035.67
2019-02-05T14:30:34.127Z,102036.20
2019-02-05T14:33:02.679Z,102043.48
2019-02-05T14:35:30.970Z,102041.35
2019-02-05T14:37:59.241Z,102040.52
2019-02-05T14:40:27.894Z,102041.91
2019-02-05T14:42:56.382Z,102039.74
2019-02-05T14:45:24.731Z,102050.97
2019-02-05T14:47:53.068Z,102051.74
2019-02-05T14:50:32.726Z,102047.93
2019-02-05T14:53:00.982Z,102050.88
2019-02-05T14:55:29.246Z,102050.11
2019-02-05T14:57:57.694Z,102052.79
2019-02-05T15:00:29.123Z,102051.88
2019-02-05T15:02:57.801Z,102054.10
2019-02-05T15:05:26.054Z,102051.52
2019-02-05T15:07:54.321Z,102055.00
2019-02-05T15:10:22.752Z,102052.83
2019-02-05T15:12:51.100Z,102058.48
2019-02-05T15:15:24.862Z,102050.67
2019-02-05T15:17:53.270Z,102054.14
2019-02-05T15:20:27.716Z,102054.16
2019-02-05T15:22:55.993Z,102057.59
2019-02-05T15:25:24.272Z,102055.06
2019-02-05T15:27:52.519Z,102056.30
2019-02-05T15:30:29.200Z,102051.11
2019-02-05T15:33:14.957Z,102051.22
2019-02-05T15:35:47.842Z,102054.66
2019-02-05T15:38:16.125Z,102053.72
2019-02-05T15:40:44.671Z,102047.80
2019-02-05T15:43:12.930Z,102057.30
2019-02-05T15:45:41.307Z,102058.98
2019-02-05T15:48:09.564Z,102058.61
2019-02-05T15:50:37.839Z,102064.69
2019-02-05T15:53:06.098Z,102062.94
2019-02-05T15:55:34.424Z,102065.56
2019-02-05T15:58:02.870Z,102068.59
2019-02-05T16:00:31.125Z,102068.59
2019-02-05T16:02:59.375Z,102064.73
2019-02-05T16:05:27.649Z,102073.34
2019-02-05T16:07:55.927Z,102072.46
2019-02-05T16:10:24.851Z,102072.52
2019-02-05T16:12:53.135Z,102073.03
2019-02-05T16:15:21.386Z,102069.13
2019-02-05T16:17:49.719Z,102080.34
2019-02-05T16:20:18.928Z,102081.55
2019-02-05T16:22:47.734Z,102085.98
2019-02-05T16:25:16.161Z,102088.14
2019-02-05T16:27:44.481Z,102072.59
2019-02-05T16:30:21.794Z,102079.95
2019-02-05T16:32:50.043Z,102086.42
2019-02-05T16:35:18.318Z,102082.98
2019-02-05T16:37:46.596Z,102082.98
2019-02-05T16:40:23.701Z,102087.75
2019-02-05T16:42:52.293Z,102088.19
2019-02-05T16:45:25.748Z,102090.82
2019-02-05T16:47:54.035Z,102092.07
2019-02-05T16:50:25.113Z,102095.50
2019-02-05T16:52:53.875Z,102098.93
2019-02-05T16:55:22.132Z,102104.11
2019-02-05T16:57:50.636Z,102099.84
2019-02-05T17:00:21.185Z,102101.16
2019-02-05T17:02:49.440Z,102092.52
2019-02-05T17:05:18.443Z,102101.84
2019-02-05T17:07:46.719Z,102101.52
2019-02-05T17:10:18.143Z,102108.02
2019-02-05T17:12:46.542Z,102108.88
2019-02-05T17:15:17.438Z,102114.09
2019-02-05T17:17:46.021Z,102112.80
2019-02-05T17:20:17.447Z,102119.27
2019-02-05T17:22:45.725Z,102120.09
2019-02-05T17:25:16.632Z,102124.89
2019-02-05T17:27:45.086Z,102124.91
2019-02-05T17:30:16.121Z,102125.80
2019-02-05T17:32:44.384Z,102129.75
2019-02-05T17:35:12.725Z,102133.16
2019-02-05T17:37:41.044Z,102135.38
2019-02-05T17:40:14.689Z,102139.72
2019-02-05T17:42:42.933Z,102142.73
2019-02-05T17:45:20.359Z,102144.06
2019-02-05T17:47:49.181Z,102144.53
2019-02-05T17:50:17.437Z,102143.64
2019-02-05T17:52:45.695Z,102143.22
2019-02-05T17:55:18.050Z,102141.13
2019-02-05T17:57:46.350Z,102148.91
2019-02-05T18:00:27.790Z,102142.86
2019-02-05T18:02:56.067Z,102140.70
2019-02-05T18:05:25.994Z,102145.47
2019-02-05T18:07:54.642Z,102149.78
2019-02-05T18:10:27.439Z,102153.67
2019-02-05T18:12:55.753Z,102153.25
2019-02-05T18:15:29.498Z,102154.22
2019-02-05T18:17:57.856Z,102159.41
2019-02-05T18:20:26.131Z,102158.55
2019-02-05T18:22:54.652Z,102155.13
2019-02-05T18:25:22.933Z,102155.56
2019-02-05T18:27:51.273Z,102155.58
2019-02-05T18:30:27.328Z,102154.70
2019-02-05T18:33:05.185Z,102158.16
2019-02-05T18:35:27.280Z,102162.45
2019-02-05T18:37:55.617Z,102162.87
2019-02-05T18:40:25.819Z,102161.60
2019-02-05T18:42:54.846Z,102163.77
2019-02-05T18:45:23.096Z,102159.02
2019-02-05T18:47:51.367Z,102162.48
2019-02-05T18:50:27.228Z,102168.14
2019-02-05T18:52:55.501Z,102167.70
2019-02-05T18:55:26.656Z,102167.71
2019-02-05T18:57:54.935Z,102162.95
2019-02-05T19:00:28.590Z,102162.11
2019-02-05T19:02:57.331Z,102161.23
2019-02-05T19:05:26.068Z,102165.55
2019-02-05T19:07:54.335Z,102161.25
2019-02-05T19:10:27.783Z,102160.38
2019-02-05T19:12:56.048Z,102160.80
2019-02-05T19:15:26.277Z,102162.97
2019-02-05T19:17:54.532Z,102154.77
2019-02-05T19:20:25.401Z,102166.84
2019-02-05T19:22:55.155Z,102159.95
2019-02-05T19:25:25.138Z,102160.40
2019-02-05T19:27:53.413Z,102161.28
2019-02-05T19:30:25.549Z,102161.76
2019-02-05T19:32:55.849Z,102162.62
2019-02-05T19:35:25.297Z,102167.80
2019-02-05T19:37:53.513Z,102165.66
2019-02-05T19:40:21.804Z,102166.08
2019-02-05T19:42:51.646Z,102166.10
2019-02-05T19:45:40.456Z,102164.81
2019-02-05T19:48:26.428Z,102162.23
2019-02-05T19:50:55.045Z,102171.75
2019-02-05T19:53:26.080Z,102174.77
2019-02-05T19:55:56.267Z,102163.52
2019-02-05T19:58:24.533Z,102167.83
2019-02-05T20:00:54.283Z,102171.72
2019-02-05T20:03:23.230Z,102173.91
2019-02-05T20:05:51.495Z,102177.32
2019-02-05T20:08:21.946Z,102179.96
2019-02-05T20:10:50.908Z,102178.23
2019-02-05T20:13:19.457Z,102178.66
2019-02-05T20:15:47.938Z,102182.98
2019-02-05T20:18:16.693Z,102179.11
2019-02-05T20:20:44.963Z,102182.98
2019-02-05T20:23:13.283Z,102181.27
2019-02-05T20:25:43.094Z,102182.12
2019-02-05T20:28:11.363Z,102187.73
2019-02-05T20:30:39.638Z,102181.74
2019-02-05T20:33:07.950Z,102189.97
2019-02-05T20:35:38.821Z,102187.81
2019-02-05T20:38:08.699Z,102190.39
2019-02-05T20:40:37.033Z,102186.97
2019-02-05T20:43:08.940Z,102189.55
2019-02-05T20:45:38.923Z,102190.41
2019-02-05T20:48:08.967Z,102185.67
2019-02-05T20:50:37.588Z,102184.38
2019-02-05T20:53:13.396Z,102188.25
2019-02-05T20:55:35.961Z,102186.53
2019-02-05T20:58:05.872Z,102190.83
2019-02-05T21:00:34.170Z,102195.58
2019-02-05T21:03:05.160Z,102191.70
2019-02-05T21:05:33.420Z,102190.41
2019-02-05T21:08:01.781Z,102189.98
2019-02-05T21:10:30.995Z,102191.70
2019-02-05T21:12:59.286Z,102199.89
2019-02-05T21:15:27.622Z,102193.87
2019-02-05T21:17:55.959Z,102202.03
2019-02-05T21:20:34.047Z,102208.47
2019-02-05T21:22:57.867Z,102203.75
2019-02-05T21:25:26.206Z,102207.19
2019-02-05T21:27:54.472Z,102202.45
2019-02-05T21:30:24.680Z,102207.18
2019-02-05T21:32:53.479Z,102208.05
2019-02-05T21:35:21.815Z,102213.64
2019-02-05T21:37:50.116Z,102209.32
2019-02-05T21:40:25.688Z,102207.17
2019-02-05T21:42:53.946Z,102203.27
2019-02-05T21:45:30.766Z,102206.72
2019-02-05T21:47:59.031Z,102207.99
2019-02-05T21:50:27.294Z,102208.00
2019-02-05T21:52:55.948Z,102200.69
2019-02-05T21:55:25.694Z,102204.98
2019-02-05T21:57:54.235Z,102193.77
2019-02-05T22:00:30.713Z,102196.77
2019-02-05T22:02:59.173Z,102200.65
2019-02-05T22:05:28.987Z,102196.78
2019-02-05T22:07:57.372Z,102202.39
2019-02-05T22:10:25.643Z,102199.80
2019-02-05T22:12:53.923Z,102198.94
2019-02-05T22:15:22.705Z,102202.39
2019-02-05T22:17:50.969Z,102198.55
2019-02-05T22:20:25.033Z,102199.39
2019-02-05T22:22:56.014Z,102197.62
2019-02-05T22:25:31.661Z,102192.45
2019-02-05T22:28:00.008Z,102195.03
2019-02-05T22:30:33.219Z,102194.53
2019-02-05T22:33:01.855Z,102199.69
2019-02-05T22:35:30.320Z,102200.94
2019-02-05T22:37:58.559Z,102194.91
2019-02-05T22:40:27.674Z,102197.48
2019-02-05T22:42:56.113Z,102199.12
2019-02-05T22:45:27.296Z,102193.52
2019-02-05T22:47:55.600Z,102190.05
2019-02-05T22:50:25.693Z,102191.27
2019-02-05T22:52:54.033Z,102193.84
2019-02-05T22:55:22.399Z,102191.64
2019-02-05T22:57:50.754Z,102194.58
2019-02-05T23:00:22.945Z,102190.27
2019-02-05T23:02:51.226Z,102190.21
2019-02-05T23:05:38.622Z,102191.43
2019-02-05T23:08:08.126Z,102187.12
2019-02-05T23:10:39.579Z,102183.18
2019-02-05T23:13:07.995Z,102197.33
2019-02-05T23:15:36.517Z,102195.98
2019-02-05T23:18:05.734Z,102194.29
2019-02-05T23:20:34.006Z,102195.52
2019-02-05T23:23:02.281Z,102193.82
2019-02-05T23:25:30.546Z,102194.65
2019-02-05T23:27:58.851Z,102194.23
2019-02-05T23:30:27.176Z,102192.08
2019-02-05T23:32:55.444Z,102191.23
2019-02-05T23:35:23.726Z,102193.80
2019-02-05T23:37:51.997Z,102189.53
2019-02-05T23:40:20.265Z,102187.40
2019-02-05T23:42:48.531Z,102189.55
2019-02-05T23:45:16.872Z,102195.56
2019-02-05T23:47:45.142Z,102194.27
2019-02-05T23:50:15.063Z,102200.20
2019-02-05T23:52:43.714Z,102200.27
2019-02-05T23:55:13.639Z,102201.11
2019-02-05T23:57:41.894Z,102209.67
